sensor_id;sensor_type;location;lat;lon;timestamp;temperature;humidity
74946;HTU21D;63509;45.250;38.102;2024-01-15T00:02:14;4.53;75.27
74946;HTU21D;63509;45.250;38.102;2024-01-15T00:04:41;4.54;75.23
74946;HTU21D;63509;45.250;38.102;2024-01-15T00:07:07;4.59;75.19
74946;HTU21D;63509;45.250;38.102;2024-01-15T00:09:34;4.59;75.14
74946;HTU21D;63509;45.250;38.102;2024-01-15T00:12:01;4.60;75.09
74946;HTU21D;63509;45.250;38.102;2024-01-15T00:14:28;4.60;75.05
74946;HTU21D;63509;45.250;38.102;2024-01-15T00:16:54;4.61;75.01
74946;HTU21D;63509;45.250;38.102;2024-01-15T00:19:21;4.62;74.98
74946;HTU21D;63509;45.250;38.102;2024-01-15T00:21:48;4.62;74.96
74946;HTU21D;63509;45.250;38.102;2024-01-15T00:24:14;4.61;74.94
74946;HTU21D;63509;45.250;38.102;2024-01-15T00:26:40;4.61;74.91
74946;HTU21D;63509;45.250;38.102;2024-01-15T00:29:07;4.60;74.90
74946;HTU21D;63509;45.250;38.102;2024-01-15T00:31:34;4.59;74.89
74946;HTU21D;63509;45.250;38.102;2024-01-15T00:34:00;4.56;74.88
74946;HTU21D;63509;45.250;38.102;2024-01-15T00:36:27;4.56;74.88
74946;HTU21D;63509;45.250;38.102;2024-01-15T00:38:53;4.56;74.86
74946;HTU21D;63509;45.250;38.102;2024-01-15T00:41:19;4.56;74.86
74946;HTU21D;63509;45.250;38.102;2024-01-15T00:43:46;4.56;74.86
74946;HTU21D;63509;45.250;38.102;2024-01-15T00:46:14;4.56;74.87
74946;HTU21D;63509;45.250;38.102;2024-01-15T00:48:40;4.53;74.86
74946;HTU21D;63509;45.250;38.102;2024-01-15T00:51:07;4.53;74.89
74946;HTU21D;63509;45.250;38.102;2024-01-15T00:53:33;4.54;74.92
74946;HTU21D;63509;45.250;38.102;2024-01-15T00:55:59;4.56;74.92
74946;HTU21D;63509;45.250;38.102;2024-01-15T00:58:26;4.57;74.91
74946;HTU21D;63509;45.250;38.102;2024-01-15T01:00:53;4.58;74.87
74946;HTU21D;63509;45.250;38.102;2024-01-15T01:03:19;4.58;74.85
74946;HTU21D;63509;45.250;38.102;2024-01-15T01:05:45;4.58;74.82
74946;HTU21D;63509;45.250;38.102;2024-01-15T01:08:11;4.58;74.81
74946;HTU21D;63509;45.250;38.102;2024-01-15T01:10:37;4.56;74.77
74946;HTU21D;63509;45.250;38.102;2024-01-15T01:13:03;4.53;74.78
74946;HTU21D;63509;45.250;38.102;2024-01-15T01:15:29;4.52;74.79
74946;HTU21D;63509;45.250;38.102;2024-01-15T01:17:55;4.50;74.78
74946;HTU21D;63509;45.250;38.102;2024-01-15T01:20:21;4.45;74.80
74946;HTU21D;63509;45.250;38.102;2024-01-15T01:22:48;4.37;74.85
74946;HTU21D;63509;45.250;38.102;2024-01-15T01:25:14;4.33;74.96
74946;HTU21D;63509;45.250;38.102;2024-01-15T01:27:40;4.27;75.02
74946;HTU21D;63509;45.250;38.102;2024-01-15T01:30:06;4.23;75.10
74946;HTU21D;63509;45.250;38.102;2024-01-15T01:32:32;4.19;75.16
74946;HTU21D;63509;45.250;38.102;2024-01-15T01:34:59;4.16;75.21
74946;HTU21D;63509;45.250;38.102;2024-01-15T01:37:25;4.12;75.27
74946;HTU21D;63509;45.250;38.102;2024-01-15T01:39:51;4.07;75.35
74946;HTU21D;63509;45.250;38.102;2024-01-15T01:42:17;4.04;75.43
74946;HTU21D;63509;45.250;38.102;2024-01-15T01:44:43;4.01;75.48
74946;HTU21D;63509;45.250;38.102;2024-01-15T01:47:09;3.97;75.54
74946;HTU21D;63509;45.250;38.102;2024-01-15T01:49:37;3.97;75.58
74946;HTU21D;63509;45.250;38.102;2024-01-15T01:52:05;3.91;75.65
74946;HTU21D;63509;45.250;38.102;2024-01-15T01:54:33;3.89;75.72
74946;HTU21D;63509;45.250;38.102;2024-01-15T01:57:00;3.88;75.74
74946;HTU21D;63509;45.250;38.102;2024-01-15T01:59:28;3.88;75.75
74946;HTU21D;63509;45.250;38.102;2024-01-15T02:01:56;3.85;75.82
74946;HTU21D;63509;45.250;38.102;2024-01-15T02:04:24;3.85;75.86
74946;HTU21D;63509;45.250;38.102;2024-01-15T02:06:51;3.84;75.86
74946;HTU21D;63509;45.250;38.102;2024-01-15T02:09:18;3.83;75.90
74946;HTU21D;63509;45.250;38.102;2024-01-15T02:11:46;3.82;75.92
74946;HTU21D;63509;45.250;38.102;2024-01-15T02:14:13;3.79;75.92
74946;HTU21D;63509;45.250;38.102;2024-01-15T02:16:39;3.78;75.94
74946;HTU21D;63509;45.250;38.102;2024-01-15T02:19:05;3.78;75.95
74946;HTU21D;63509;45.250;38.102;2024-01-15T02:21:32;3.76;75.94
74946;HTU21D;63509;45.250;38.102;2024-01-15T02:23:58;3.73;75.94
74946;HTU21D;63509;45.250;38.102;2024-01-15T02:26:25;3.72;75.93
74946;HTU21D;63509;45.250;38.102;2024-01-15T02:28:52;3.69;75.92
74946;HTU21D;63509;45.250;38.102;2024-01-15T02:31:18;3.67;75.95
74946;HTU21D;63509;45.250;38.102;2024-01-15T02:33:44;3.62;75.97
74946;HTU21D;63509;45.250;38.102;2024-01-15T02:36:12;3.59;76.02
74946;HTU21D;63509;45.250;38.102;2024-01-15T02:38:38;3.59;76.01
74946;HTU21D;63509;45.250;38.102;2024-01-15T02:41:04;3.57;76.02
74946;HTU21D;63509;45.250;38.102;2024-01-15T02:43:30;3.56;76.01
74946;HTU21D;63509;45.250;38.102;2024-01-15T02:45:56;3.55;76.00
74946;HTU21D;63509;45.250;38.102;2024-01-15T02:48:22;3.53;76.01
74946;HTU21D;63509;45.250;38.102;2024-01-15T02:50:49;3.54;76.01
74946;HTU21D;63509;45.250;38.102;2024-01-15T02:53:15;3.50;75.99
74946;HTU21D;63509;45.250;38.102;2024-01-15T02:55:41;3.48;75.95
74946;HTU21D;63509;45.250;38.102;2024-01-15T02:58:07;3.45;75.95
74946;HTU21D;63509;45.250;38.102;2024-01-15T03:00:33;3.44;75.99
74946;HTU21D;63509;45.250;38.102;2024-01-15T03:02:59;3.44;76.03
74946;HTU21D;63509;45.250;38.102;2024-01-15T03:05:26;3.45;76.04
74946;HTU21D;63509;45.250;38.102;2024-01-15T03:07:52;3.46;76.05
74946;HTU21D;63509;45.250;38.102;2024-01-15T03:10:18;3.46;76.05
74946;HTU21D;63509;45.250;38.102;2024-01-15T03:12:44;3.46;76.06
74946;HTU21D;63509;45.250;38.102;2024-01-15T03:15:10;3.46;76.08
74946;HTU21D;63509;45.250;38.102;2024-01-15T03:17:36;3.46;76.08
74946;HTU21D;63509;45.250;38.102;2024-01-15T03:20:02;3.45;76.10
74946;HTU21D;63509;45.250;38.102;2024-01-15T03:22:28;3.46;76.12
74946;HTU21D;63509;45.250;38.102;2024-01-15T03:24:54;3.45;76.15
74946;HTU21D;63509;45.250;38.102;2024-01-15T03:27:21;3.47;76.18
74946;HTU21D;63509;45.250;38.102;2024-01-15T03:29:47;3.49;76.21
74946;HTU21D;63509;45.250;38.102;2024-01-15T03:32:13;3.52;76.25
74946;HTU21D;63509;45.250;38.102;2024-01-15T03:34:39;3.55;76.31
74946;HTU21D;63509;45.250;38.102;2024-01-15T03:37:05;3.62;76.33
74946;HTU21D;63509;45.250;38.102;2024-01-15T03:39:31;3.70;76.32
74946;HTU21D;63509;45.250;38.102;2024-01-15T03:41:57;3.77;76.31
74946;HTU21D;63509;45.250;38.102;2024-01-15T03:44:23;3.83;76.28
74946;HTU21D;63509;45.250;38.102;2024-01-15T03:46:50;3.88;76.25
74946;HTU21D;63509;45.250;38.102;2024-01-15T03:49:16;3.91;76.26
74946;HTU21D;63509;45.250;38.102;2024-01-15T03:51:42;3.92;76.26
74946;HTU21D;63509;45.250;38.102;2024-01-15T03:54:08;3.93;76.30
74946;HTU21D;63509;45.250;38.102;2024-01-15T03:56:34;3.93;76.37
74946;HTU21D;63509;45.250;38.102;2024-01-15T03:59:01;3.93;76.34
74946;HTU21D;63509;45.250;38.102;2024-01-15T04:01:27;3.94;76.32
74946;HTU21D;63509;45.250;38.102;2024-01-15T04:03:53;3.90;76.31
74946;HTU21D;63509;45.250;38.102;2024-01-15T04:06:19;3.89;76.34
74946;HTU21D;63509;45.250;38.102;2024-01-15T04:08:45;3.87;76.37
74946;HTU21D;63509;45.250;38.102;2024-01-15T04:11:11;3.85;76.38
74946;HTU21D;63509;45.250;38.102;2024-01-15T04:13:38;3.85;76.37
74946;HTU21D;63509;45.250;38.102;2024-01-15T04:16:04;3.82;76.42
74946;HTU21D;63509;45.250;38.102;2024-01-15T04:18:30;3.79;76.44
74946;HTU21D;63509;45.250;38.102;2024-01-15T04:20:56;3.77;76.45
74946;HTU21D;63509;45.250;38.102;2024-01-15T04:23:22;3.76;76.47
74946;HTU21D;63509;45.250;38.102;2024-01-15T04:25:48;3.74;76.52
74946;HTU21D;63509;45.250;38.102;2024-01-15T04:28:14;3.75;76.60
74946;HTU21D;63509;45.250;38.102;2024-01-15T04:30:40;3.75;76.68
74946;HTU21D;63509;45.250;38.102;2024-01-15T04:33:06;3.76;76.80
74946;HTU21D;63509;45.250;38.102;2024-01-15T04:35:33;3.80;76.93
74946;HTU21D;63509;45.250;38.102;2024-01-15T04:38:00;3.84;76.95
74946;HTU21D;63509;45.250;38.102;2024-01-15T04:40:26;3.88;76.98
74946;HTU21D;63509;45.250;38.102;2024-01-15T04:42:54;3.90;76.96
74946;HTU21D;63509;45.250;38.102;2024-01-15T04:45:20;3.91;76.95
74946;HTU21D;63509;45.250;38.102;2024-01-15T04:47:48;3.93;76.93
74946;HTU21D;63509;45.250;38.102;2024-01-15T04:50:15;3.93;76.94
74946;HTU21D;63509;45.250;38.102;2024-01-15T04:52:41;3.93;76.95
74946;HTU21D;63509;45.250;38.102;2024-01-15T04:55:07;3.93;76.92
74946;HTU21D;63509;45.250;38.102;2024-01-15T04:57:33;3.93;76.88
74946;HTU21D;63509;45.250;38.102;2024-01-15T05:00:00;3.91;76.89
74946;HTU21D;63509;45.250;38.102;2024-01-15T05:02:26;3.90;76.89
74946;HTU21D;63509;45.250;38.102;2024-01-15T05:04:52;3.87;76.85
74946;HTU21D;63509;45.250;38.102;2024-01-15T05:07:18;3.86;76.91
74946;HTU21D;63509;45.250;38.102;2024-01-15T05:09:44;3.84;76.99
74946;HTU21D;63509;45.250;38.102;2024-01-15T05:12:10;3.84;77.00
74946;HTU21D;63509;45.250;38.102;2024-01-15T05:14:37;3.83;77.02
74946;HTU21D;63509;45.250;38.102;2024-01-15T05:17:03;3.84;77.05
74946;HTU21D;63509;45.250;38.102;2024-01-15T05:19:29;3.85;77.09
74946;HTU21D;63509;45.250;38.102;2024-01-15T05:21:55;3.80;77.15
74946;HTU21D;63509;45.250;38.102;2024-01-15T05:24:22;3.78;77.22
74946;HTU21D;63509;45.250;38.102;2024-01-15T05:26:48;3.74;77.29
74946;HTU21D;63509;45.250;38.102;2024-01-15T05:29:14;3.71;77.35
74946;HTU21D;63509;45.250;38.102;2024-01-15T05:31:40;3.67;77.44
74946;HTU21D;63509;45.250;38.102;2024-01-15T05:34:06;3.65;77.49
74946;HTU21D;63509;45.250;38.102;2024-01-15T05:36:32;3.67;77.60
74946;HTU21D;63509;45.250;38.102;2024-01-15T05:38:58;3.68;77.64
74946;HTU21D;63509;45.250;38.102;2024-01-15T05:41:24;3.70;77.63
74946;HTU21D;63509;45.250;38.102;2024-01-15T05:43:51;3.71;77.63
74946;HTU21D;63509;45.250;38.102;2024-01-15T05:46:17;3.70;77.68
74946;HTU21D;63509;45.250;38.102;2024-01-15T05:48:43;3.70;77.72
74946;HTU21D;63509;45.250;38.102;2024-01-15T05:51:10;3.74;77.73
74946;HTU21D;63509;45.250;38.102;2024-01-15T05:53:36;3.76;77.69
74946;HTU21D;63509;45.250;38.102;2024-01-15T05:56:06;3.76;77.69
74946;HTU21D;63509;45.250;38.102;2024-01-15T05:58:32;3.80;77.76
74946;HTU21D;63509;45.250;38.102;2024-01-15T06:00:58;3.85;77.70
74946;HTU21D;63509;45.250;38.102;2024-01-15T06:03:24;3.88;77.72
74946;HTU21D;63509;45.250;38.102;2024-01-15T06:05:50;3.92;77.71
74946;HTU21D;63509;45.250;38.102;2024-01-15T06:08:16;3.98;77.71
74946;HTU21D;63509;45.250;38.102;2024-01-15T06:10:42;4.04;77.67
74946;HTU21D;63509;45.250;38.102;2024-01-15T06:13:08;4.09;77.66
74946;HTU21D;63509;45.250;38.102;2024-01-15T06:15:35;4.16;77.65
74946;HTU21D;63509;45.250;38.102;2024-01-15T06:18:01;4.20;77.63
74946;HTU21D;63509;45.250;38.102;2024-01-15T06:20:27;4.21;77.60
74946;HTU21D;63509;45.250;38.102;2024-01-15T06:22:53;4.24;77.58
74946;HTU21D;63509;45.250;38.102;2024-01-15T06:25:19;4.26;77.60
74946;HTU21D;63509;45.250;38.102;2024-01-15T06:27:45;4.28;77.63
74946;HTU21D;63509;45.250;38.102;2024-01-15T06:30:12;4.31;77.64
74946;HTU21D;63509;45.250;38.102;2024-01-15T06:32:39;4.32;77.65
74946;HTU21D;63509;45.250;38.102;2024-01-15T06:35:05;4.36;77.66
74946;HTU21D;63509;45.250;38.102;2024-01-15T06:37:32;4.36;77.69
74946;HTU21D;63509;45.250;38.102;2024-01-15T06:39:58;4.37;77.71
74946;HTU21D;63509;45.250;38.102;2024-01-15T06:42:25;4.39;77.73
74946;HTU21D;63509;45.250;38.102;2024-01-15T06:44:51;4.42;77.74
74946;HTU21D;63509;45.250;38.102;2024-01-15T06:47:17;4.43;77.73
74946;HTU21D;63509;45.250;38.102;2024-01-15T06:49:43;4.44;77.74
74946;HTU21D;63509;45.250;38.102;2024-01-15T06:52:09;4.43;77.76
74946;HTU21D;63509;45.250;38.102;2024-01-15T06:54:37;4.43;77.77
74946;HTU21D;63509;45.250;38.102;2024-01-15T06:57:03;4.43;77.79
74946;HTU21D;63509;45.250;38.102;2024-01-15T06:59:29;4.42;77.78
74946;HTU21D;63509;45.250;38.102;2024-01-15T07:01:55;4.37;77.82
74946;HTU21D;63509;45.250;38.102;2024-01-15T07:04:21;4.37;77.83
74946;HTU21D;63509;45.250;38.102;2024-01-15T07:06:48;4.36;77.86
74946;HTU21D;63509;45.250;38.102;2024-01-15T07:09:14;4.37;77.92
74946;HTU21D;63509;45.250;38.102;2024-01-15T07:11:44;4.39;77.98
74946;HTU21D;63509;45.250;38.102;2024-01-15T07:14:11;4.41;77.98
74946;HTU21D;63509;45.250;38.102;2024-01-15T07:16:37;4.43;78.01
74946;HTU21D;63509;45.250;38.102;2024-01-15T07:19:04;4.48;78.08
74946;HTU21D;63509;45.250;38.102;2024-01-15T07:21:30;4.53;78.05
74946;HTU21D;63509;45.250;38.102;2024-01-15T07:23:56;4.57;78.03
74946;HTU21D;63509;45.250;38.102;2024-01-15T07:26:22;4.59;77.99
74946;HTU21D;63509;45.250;38.102;2024-01-15T07:28:48;4.58;77.98
74946;HTU21D;63509;45.250;38.102;2024-01-15T07:31:17;4.56;77.95
74946;HTU21D;63509;45.250;38.102;2024-01-15T07:33:43;4.56;77.93
74946;HTU21D;63509;45.250;38.102;2024-01-15T07:36:10;4.54;77.93
74946;HTU21D;63509;45.250;38.102;2024-01-15T07:38:36;4.59;78.10
74946;HTU21D;63509;45.250;38.102;2024-01-15T07:41:03;4.78;78.16
74946;HTU21D;63509;45.250;38.102;2024-01-15T07:43:29;4.96;78.09
74946;HTU21D;63509;45.250;38.102;2024-01-15T07:45:55;5.11;78.08
74946;HTU21D;63509;45.250;38.102;2024-01-15T07:48:21;5.22;78.10
74946;HTU21D;63509;45.250;38.102;2024-01-15T07:50:47;5.34;78.09
74946;HTU21D;63509;45.250;38.102;2024-01-15T07:53:14;5.56;78.10
74946;HTU21D;63509;45.250;38.102;2024-01-15T07:55:40;5.78;77.98
74946;HTU21D;63509;45.250;38.102;2024-01-15T07:58:06;6.02;77.89
74946;HTU21D;63509;45.250;38.102;2024-01-15T08:00:33;6.26;77.83
74946;HTU21D;63509;45.250;38.102;2024-01-15T08:02:59;6.45;77.72
74946;HTU21D;63509;45.250;38.102;2024-01-15T08:05:25;6.64;77.64
74946;HTU21D;63509;45.250;38.102;2024-01-15T08:07:51;6.78;77.51
74946;HTU21D;63509;45.250;38.102;2024-01-15T08:10:17;6.80;77.40
74946;HTU21D;63509;45.250;38.102;2024-01-15T08:12:43;6.81;77.41
74946;HTU21D;63509;45.250;38.102;2024-01-15T08:15:09;6.76;77.45
74946;HTU21D;63509;45.250;38.102;2024-01-15T08:17:36;6.81;77.44
74946;HTU21D;63509;45.250;38.102;2024-01-15T08:20:02;6.78;77.37
74946;HTU21D;63509;45.250;38.102;2024-01-15T08:22:28;6.69;77.36
74946;HTU21D;63509;45.250;38.102;2024-01-15T08:24:54;6.57;77.38
74946;HTU21D;63509;45.250;38.102;2024-01-15T08:27:21;6.46;77.47
74946;HTU21D;63509;45.250;38.102;2024-01-15T08:29:47;6.38;77.48
74946;HTU21D;63509;45.250;38.102;2024-01-15T08:32:13;6.28;77.56
74946;HTU21D;63509;45.250;38.102;2024-01-15T08:34:41;6.19;77.60
74946;HTU21D;63509;45.250;38.102;2024-01-15T08:37:08;6.13;77.63
74946;HTU21D;63509;45.250;38.102;2024-01-15T08:39:34;6.07;77.78
74946;HTU21D;63509;45.250;38.102;2024-01-15T08:42:05;6.06;77.82
74946;HTU21D;63509;45.250;38.102;2024-01-15T08:44:31;6.01;77.84
74946;HTU21D;63509;45.250;38.102;2024-01-15T08:46:57;6.01;77.92
74946;HTU21D;63509;45.250;38.102;2024-01-15T08:49:23;6.00;77.98
74946;HTU21D;63509;45.250;38.102;2024-01-15T08:51:49;6.04;78.02
74946;HTU21D;63509;45.250;38.102;2024-01-15T08:54:15;6.06;78.06
74946;HTU21D;63509;45.250;38.102;2024-01-15T08:56:41;6.10;78.13
74946;HTU21D;63509;45.250;38.102;2024-01-15T08:59:07;6.14;78.19
74946;HTU21D;63509;45.250;38.102;2024-01-15T09:01:33;6.23;78.29
74946;HTU21D;63509;45.250;38.102;2024-01-15T09:04:00;6.39;78.41
74946;HTU21D;63509;45.250;38.102;2024-01-15T09:06:26;6.58;78.53
74946;HTU21D;63509;45.250;38.102;2024-01-15T09:08:52;6.81;78.57
74946;HTU21D;63509;45.250;38.102;2024-01-15T09:11:37;7.07;78.61
74946;HTU21D;63509;45.250;38.102;2024-01-15T09:14:03;7.28;78.56
74946;HTU21D;63509;45.250;38.102;2024-01-15T09:16:29;7.49;78.56
74946;HTU21D;63509;45.250;38.102;2024-01-15T09:18:55;7.73;78.50
74946;HTU21D;63509;45.250;38.102;2024-01-15T09:21:23;7.92;78.37
74946;HTU21D;63509;45.250;38.102;2024-01-15T09:23:50;8.08;78.21
74946;HTU21D;63509;45.250;38.102;2024-01-15T09:26:17;8.23;78.10
74946;HTU21D;63509;45.250;38.102;2024-01-15T09:28:43;8.37;78.01
74946;HTU21D;63509;45.250;38.102;2024-01-15T09:31:09;8.49;77.88
74946;HTU21D;63509;45.250;38.102;2024-01-15T09:33:35;8.55;77.72
74946;HTU21D;63509;45.250;38.102;2024-01-15T09:36:04;8.57;77.65
74946;HTU21D;63509;45.250;38.102;2024-01-15T09:38:31;8.62;77.71
74946;HTU21D;63509;45.250;38.102;2024-01-15T09:40:57;8.77;77.81
74946;HTU21D;63509;45.250;38.102;2024-01-15T09:43:24;8.91;77.73
74946;HTU21D;63509;45.250;38.102;2024-01-15T09:45:51;9.02;77.58
74946;HTU21D;63509;45.250;38.102;2024-01-15T09:48:17;9.08;77.37
74946;HTU21D;63509;45.250;38.102;2024-01-15T09:50:44;9.08;77.23
74946;HTU21D;63509;45.250;38.102;2024-01-15T09:53:11;9.14;77.24
74946;HTU21D;63509;45.250;38.102;2024-01-15T09:55:37;9.20;77.15
74946;HTU21D;63509;45.250;38.102;2024-01-15T09:58:04;9.30;77.00
74946;HTU21D;63509;45.250;38.102;2024-01-15T10:00:30;9.38;76.93
74946;HTU21D;63509;45.250;38.102;2024-01-15T10:02:59;9.48;76.86
74946;HTU21D;63509;45.250;38.102;2024-01-15T10:05:26;9.55;76.70
74946;HTU21D;63509;45.250;38.102;2024-01-15T10:07:54;9.59;76.34
74946;HTU21D;63509;45.250;38.102;2024-01-15T10:10:21;9.52;76.21
74946;HTU21D;63509;45.250;38.102;2024-01-15T10:12:48;9.45;76.15
74946;HTU21D;63509;45.250;38.102;2024-01-15T10:15:15;9.36;76.12
74946;HTU21D;63509;45.250;38.102;2024-01-15T10:17:42;9.30;76.08
74946;HTU21D;63509;45.250;38.102;2024-01-15T10:20:12;9.19;76.03
74946;HTU21D;63509;45.250;38.102;2024-01-15T10:22:42;9.08;76.02
74946;HTU21D;63509;45.250;38.102;2024-01-15T10:25:13;8.97;76.02
74946;HTU21D;63509;45.250;38.102;2024-01-15T10:27:40;8.86;76.01
74946;HTU21D;63509;45.250;38.102;2024-01-15T10:30:08;8.73;75.98
74946;HTU21D;63509;45.250;38.102;2024-01-15T10:32:34;8.61;75.99
74946;HTU21D;63509;45.250;38.102;2024-01-15T10:35:01;8.48;76.03
74946;HTU21D;63509;45.250;38.102;2024-01-15T10:37:27;8.36;76.08
74946;HTU21D;63509;45.250;38.102;2024-01-15T10:39:53;8.27;76.13
74946;HTU21D;63509;45.250;38.102;2024-01-15T10:42:19;8.18;76.15
74946;HTU21D;63509;45.250;38.102;2024-01-15T10:44:45;8.07;76.23
74946;HTU21D;63509;45.250;38.102;2024-01-15T10:47:14;8.00;76.32
74946;HTU21D;63509;45.250;38.102;2024-01-15T10:49:41;7.92;76.36
74946;HTU21D;63509;45.250;38.102;2024-01-15T10:52:07;7.88;76.44
74946;HTU21D;63509;45.250;38.102;2024-01-15T10:54:33;7.85;76.49
74946;HTU21D;63509;45.250;38.102;2024-01-15T10:57:02;7.81;76.51
74946;HTU21D;63509;45.250;38.102;2024-01-15T10:59:28;7.78;76.53
74946;HTU21D;63509;45.250;38.102;2024-01-15T11:01:55;7.77;76.56
74946;HTU21D;63509;45.250;38.102;2024-01-15T11:04:22;7.76;76.60
74946;HTU21D;63509;45.250;38.102;2024-01-15T11:06:54;7.76;76.66
74946;HTU21D;63509;45.250;38.102;2024-01-15T11:09:22;7.78;76.69
74946;HTU21D;63509;45.250;38.102;2024-01-15T11:11:52;7.83;76.70
74946;HTU21D;63509;45.250;38.102;2024-01-15T11:14:44;7.84;76.65
74946;HTU21D;63509;45.250;38.102;2024-01-15T11:17:12;7.83;76.60
74946;HTU21D;63509;45.250;38.102;2024-01-15T11:19:42;7.82;76.57
74946;HTU21D;63509;45.250;38.102;2024-01-15T11:22:10;7.79;76.51
74946;HTU21D;63509;45.250;38.102;2024-01-15T11:24:40;7.78;76.52
74946;HTU21D;63509;45.250;38.102;2024-01-15T11:27:08;7.79;76.54
74946;HTU21D;63509;45.250;38.102;2024-01-15T11:29:36;7.79;76.53
74946;HTU21D;63509;45.250;38.102;2024-01-15T11:32:06;7.81;76.53
74946;HTU21D;63509;45.250;38.102;2024-01-15T11:34:59;7.85;76.53
74946;HTU21D;63509;45.250;38.102;2024-01-15T11:37:57;7.89;76.53
74946;HTU21D;63509;45.250;38.102;2024-01-15T11:40:18;7.99;76.50
74946;HTU21D;63509;45.250;38.102;2024-01-15T11:42:45;8.07;76.41
74946;HTU21D;63509;45.250;38.102;2024-01-15T11:45:18;8.16;76.31
74946;HTU21D;63509;45.250;38.102;2024-01-15T11:48:12;8.21;76.19
74946;HTU21D;63509;45.250;38.102;2024-01-15T11:50:44;8.29;76.12
74946;HTU21D;63509;45.250;38.102;2024-01-15T11:55:58;8.38;75.86
74946;HTU21D;63509;45.250;38.102;2024-01-15T11:58:26;8.43;75.81
74946;HTU21D;63509;45.250;38.102;2024-01-15T12:00:52;8.45;75.76
74946;HTU21D;63509;45.250;38.102;2024-01-15T12:03:22;8.52;75.70
74946;HTU21D;63509;45.250;38.102;2024-01-15T12:05:48;8.59;75.66
74946;HTU21D;63509;45.250;38.102;2024-01-15T12:08:15;8.65;75.60
74946;HTU21D;63509;45.250;38.102;2024-01-15T12:10:46;8.71;75.49
74946;HTU21D;63509;45.250;38.102;2024-01-15T12:13:13;8.74;75.31
74946;HTU21D;63509;45.250;38.102;2024-01-15T12:15:44;8.73;75.12
74946;HTU21D;63509;45.250;38.102;2024-01-15T12:18:15;8.70;75.04
74946;HTU21D;63509;45.250;38.102;2024-01-15T12:20:43;8.66;74.92
74946;HTU21D;63509;45.250;38.102;2024-01-15T12:23:10;8.63;74.91
74946;HTU21D;63509;45.250;38.102;2024-01-15T12:25:37;8.59;74.89
74946;HTU21D;63509;45.250;38.102;2024-01-15T12:28:03;8.57;74.86
74946;HTU21D;63509;45.250;38.102;2024-01-15T12:30:31;8.55;74.83
74946;HTU21D;63509;45.250;38.102;2024-01-15T12:33:00;8.53;74.92
74946;HTU21D;63509;45.250;38.102;2024-01-15T12:35:26;8.53;74.90
74946;HTU21D;63509;45.250;38.102;2024-01-15T12:37:54;8.52;74.90
74946;HTU21D;63509;45.250;38.102;2024-01-15T12:40:21;8.52;74.92
74946;HTU21D;63509;45.250;38.102;2024-01-15T12:42:48;8.52;74.82
74946;HTU21D;63509;45.250;38.102;2024-01-15T12:45:14;8.51;74.70
74946;HTU21D;63509;45.250;38.102;2024-01-15T12:47:41;8.47;74.60
74946;HTU21D;63509;45.250;38.102;2024-01-15T12:50:09;8.42;74.55
74946;HTU21D;63509;45.250;38.102;2024-01-15T12:52:35;8.37;74.51
74946;HTU21D;63509;45.250;38.102;2024-01-15T12:55:07;8.35;74.47
74946;HTU21D;63509;45.250;38.102;2024-01-15T12:57:37;8.33;74.44
74946;HTU21D;63509;45.250;38.102;2024-01-15T13:00:04;8.31;74.43
74946;HTU21D;63509;45.250;38.102;2024-01-15T13:02:38;8.28;74.42
74946;HTU21D;63509;45.250;38.102;2024-01-15T13:05:04;8.26;74.38
74946;HTU21D;63509;45.250;38.102;2024-01-15T13:07:31;8.21;74.38
74946;HTU21D;63509;45.250;38.102;2024-01-15T13:09:57;8.20;74.43
74946;HTU21D;63509;45.250;38.102;2024-01-15T13:12:24;8.19;74.43
74946;HTU21D;63509;45.250;38.102;2024-01-15T13:14:50;8.17;74.41
74946;HTU21D;63509;45.250;38.102;2024-01-15T13:17:16;8.16;74.35
74946;HTU21D;63509;45.250;38.102;2024-01-15T13:19:42;8.14;74.32
74946;HTU21D;63509;45.250;38.102;2024-01-15T13:22:08;8.09;74.31
74946;HTU21D;63509;45.250;38.102;2024-01-15T13:24:35;8.05;74.29
74946;HTU21D;63509;45.250;38.102;2024-01-15T13:27:03;8.03;74.30
74946;HTU21D;63509;45.250;38.102;2024-01-15T13:29:30;8.00;74.26
74946;HTU21D;63509;45.250;38.102;2024-01-15T13:31:57;7.97;74.25
74946;HTU21D;63509;45.250;38.102;2024-01-15T13:34:23;7.94;74.25
74946;HTU21D;63509;45.250;38.102;2024-01-15T13:36:50;7.92;74.26
74946;HTU21D;63509;45.250;38.102;2024-01-15T13:39:16;7.91;74.20
74946;HTU21D;63509;45.250;38.102;2024-01-15T13:41:49;7.90;74.16
74946;HTU21D;63509;45.250;38.102;2024-01-15T13:44:15;7.86;74.12
74946;HTU21D;63509;45.250;38.102;2024-01-15T13:46:41;7.84;74.08
74946;HTU21D;63509;45.250;38.102;2024-01-15T13:49:07;7.83;74.10
74946;HTU21D;63509;45.250;38.102;2024-01-15T13:51:36;7.79;74.09
74946;HTU21D;63509;45.250;38.102;2024-01-15T13:54:03;7.79;74.06
74946;HTU21D;63509;45.250;38.102;2024-01-15T13:56:33;7.78;74.02
74946;HTU21D;63509;45.250;38.102;2024-01-15T13:59:01;7.75;73.99
74946;HTU21D;63509;45.250;38.102;2024-01-15T14:01:27;7.73;73.94
74946;HTU21D;63509;45.250;38.102;2024-01-15T14:03:54;7.69;73.92
74946;HTU21D;63509;45.250;38.102;2024-01-15T14:06:20;7.65;73.90
74946;HTU21D;63509;45.250;38.102;2024-01-15T14:08:46;7.62;73.89
74946;HTU21D;63509;45.250;38.102;2024-01-15T14:11:12;7.60;73.90
74946;HTU21D;63509;45.250;38.102;2024-01-15T14:13:38;7.58;73.89
74946;HTU21D;63509;45.250;38.102;2024-01-15T14:16:05;7.59;73.87
74946;HTU21D;63509;45.250;38.102;2024-01-15T14:18:31;7.56;73.86
74946;HTU21D;63509;45.250;38.102;2024-01-15T14:20:58;7.54;73.83
74946;HTU21D;63509;45.250;38.102;2024-01-15T14:23:24;7.53;73.82
74946;HTU21D;63509;45.250;38.102;2024-01-15T14:25:50;7.48;73.78
74946;HTU21D;63509;45.250;38.102;2024-01-15T14:28:16;7.44;73.77
74946;HTU21D;63509;45.250;38.102;2024-01-15T14:30:43;7.40;73.77
74946;HTU21D;63509;45.250;38.102;2024-01-15T14:33:09;7.37;73.78
74946;HTU21D;63509;45.250;38.102;2024-01-15T14:35:35;7.33;73.78
74946;HTU21D;63509;45.250;38.102;2024-01-15T14:38:01;7.31;73.79
74946;HTU21D;63509;45.250;38.102;2024-01-15T14:40:27;7.27;73.80
74946;HTU21D;63509;45.250;38.102;2024-01-15T14:42:54;7.25;73.81
74946;HTU21D;63509;45.250;38.102;2024-01-15T14:45:20;7.23;73.81
74946;HTU21D;63509;45.250;38.102;2024-01-15T14:47:46;7.22;73.80
74946;HTU21D;63509;45.250;38.102;2024-01-15T14:50:12;7.20;73.78
74946;HTU21D;63509;45.250;38.102;2024-01-15T14:52:39;7.17;73.79
74946;HTU21D;63509;45.250;38.102;2024-01-15T14:55:07;7.15;73.81
74946;HTU21D;63509;45.250;38.102;2024-01-15T14:57:35;7.15;73.80
74946;HTU21D;63509;45.250;38.102;2024-01-15T15:00:01;7.14;73.79
74946;HTU21D;63509;45.250;38.102;2024-01-15T15:02:28;7.13;73.76
74946;HTU21D;63509;45.250;38.102;2024-01-15T15:04:54;7.18;73.80
74946;HTU21D;63509;45.250;38.102;2024-01-15T15:07:25;7.24;73.74
74946;HTU21D;63509;45.250;38.102;2024-01-15T15:09:51;7.31;73.70
74946;HTU21D;63509;45.250;38.102;2024-01-15T15:12:17;7.37;73.60
74946;HTU21D;63509;45.250;38.102;2024-01-15T15:14:43;7.41;73.51
74946;HTU21D;63509;45.250;38.102;2024-01-15T15:17:09;7.44;73.43